Πλησιέστερες Αναφορές METAR

 

LGTS - Thessaloniki/Makedonia-Elev 7m
Απόσταση από σταθμό: Ν 13km
Ενημερώθηκε: 20/02/2020 06:50
Μερικώς νεφελώδης
Μερικώς νεφελώδης
 Ανεμοι από μεταβλητός
Ανεμος: μεταβλητός 6 km/h
Θερμοκρασία: 7°C
Σημείο Δρόσου: 6°C
Υγρασία: 93%
Βαρόμετρο: 1012 hPa
Νέφωση: Μερικώς νεφελώδης
Ορατότητα: 10 km
Λεπτομέρειες Νεφών: Μερικώς νεφελώδης 762 m
2020/02/20 04:50 LGTS 200450Z VRB03KT 9999 SCT025 07/06 Q1012 NOSIG
LGAV - Athens/Elef. Venizelos-Elev 94m
Απόσταση από σταθμό: ΝΝΑ 312km
Ενημερώθηκε: 20/02/2020 07:20
Ασθενής βροχή, Σχεδόν νεφελώδης
Ασθενής βροχή, Σχεδόν νεφελώδης
 Ανεμοι από μεταβλητός
Ανεμος: μεταβλητός 4 km/h
Θερμοκρασία: 12°C
Σημείο Δρόσου: 8°C
Υγρασία: 77%
Βαρόμετρο: 1012 hPa
Περίληψη: Ασθενής βροχή
Νέφωση: Σχεδόν νεφελώδης
Ορατότητα: 9 km
Λεπτομέρειες Νεφών: Διάσπαρτα Νέφη 457 m
Μερικώς νεφελώδης 762 m
Σχεδόν νεφελώδης 2134 m
2020/02/20 05:20 LGAV 200520Z VRB02KT 9000 -RA FEW015 SCT025 BKN070 12/08 Q1012 NOSIG
 
LGAL - Alexandroupolis-Elev 3m
Απόσταση από σταθμό: Α 251km
Ενημερώθηκε: 20/02/2020 07:20
Μερικώς νεφελώδης
Μερικώς νεφελώδης
 Ανεμοι από άπνοια
Ανεμος: άπνοια
Θερμοκρασία: 4°C
Σημείο Δρόσου: 3°C
Υγρασία: 93%
Βαρόμετρο: 1013 hPa
Νέφωση: Μερικώς νεφελώδης
Ορατότητα: 6 km
Λεπτομέρειες Νεφών: Μερικώς νεφελώδης 762 m
2020/02/20 05:20 LGAL 200520Z 00000KT 6000 SCT025 04/03 Q1013
LGKV - Kavala/Crysoupolis-Elev 5m
Απόσταση από σταθμό: ΑΒΑ 144km
Ενημερώθηκε: 20/02/2020 07:20
Μερικώς νεφελώδης
Μερικώς νεφελώδης
 Ανεμοι από ΒΑ
Ανεμος: ΒΑ 7 km/h
Θερμοκρασία: 7°C
Δείκτης Ψύχρας: 6°C
Σημείο Δρόσου: 4°C
Υγρασία: 81%
Βαρόμετρο: 1013 hPa
Νέφωση: Μερικώς νεφελώδης
Ορατότητα: 10 km
Λεπτομέρειες Νεφών: Μερικώς νεφελώδης 762 m
Μερικώς νεφελώδης 2438 m
2020/02/20 05:20 LGKV 200520Z 04004KT 9999 SCT025 SCT080 07/04 Q1013
 
LGSK - Skiathos Island-Elev 15m
Απόσταση από σταθμό: ΝΝΑ 168km
Ενημερώθηκε: 19/02/2020 15:50
ΜΗ Ενημερωμένο METAR!
Διάσπαρτα Νέφη
Διάσπαρτα Νέφη
 Ανεμοι από Β
Ανεμος: Β 11 km/h
Θερμοκρασία: 15°C
Σημείο Δρόσου: 8°C
Υγρασία: 63%
Βαρόμετρο: 1016 hPa
Νέφωση: Διάσπαρτα Νέφη
Ορατότητα: 10 km
Λεπτομέρειες Νεφών: Διάσπαρτα Νέφη 610 m
2020/02/19 13:50 LGSK 191350Z 01006KT 9999 FEW020 15/08 Q1016
LGLM - Limnos Island-Elev 5m
Απόσταση από σταθμό: ΑΝΑ 210km
Ενημερώθηκε: 20/02/2020 07:20
Διάσπαρτα Νέφη
Διάσπαρτα Νέφη
 Ανεμοι από άπνοια
Ανεμος: άπνοια
Θερμοκρασία: 8°C
Σημείο Δρόσου: 6°C
Υγρασία: 87%
Βαρόμετρο: 1011 hPa
Νέφωση: Διάσπαρτα Νέφη
Ορατότητα: 8 km
Λεπτομέρειες Νεφών: Διάσπαρτα Νέφη 762 m
2020/02/20 05:20 LGLM 200520Z 00000KT 8000 FEW025 08/06 Q1011
 
LGMT - Mitilini Island-Elev 17m
Απόσταση από σταθμό: ΑΝΑ 358km
Ενημερώθηκε: 20/02/2020 07:20
Μερικώς νεφελώδης
Μερικώς νεφελώδης
 Ανεμοι από ΝΝΑ
Ανεμος: ΝΝΑ 15 km/h
Θερμοκρασία: 11°C
Σημείο Δρόσου: 9°C
Υγρασία: 88%
Βαρόμετρο: 1013 hPa
Νέφωση: Μερικώς νεφελώδης
Ορατότητα: 10 km
Λεπτομέρειες Νεφών: Διάσπαρτα Νέφη 549 m
Μερικώς νεφελώδης 914 m
2020/02/20 05:20 LGMT 200520Z 15008KT 130V210 9999 FEW018 SCT030 11/09 Q1013
LGSY - Skiros Island-Elev 15m
Απόσταση από σταθμό: ΝΑ 227km
Ενημερώθηκε: 20/02/2020 06:50
Διάσπαρτα Νέφη
Διάσπαρτα Νέφη
 Ανεμοι από άπνοια
Ανεμος: άπνοια
Θερμοκρασία: 11°C
Σημείο Δρόσου: 9°C
Υγρασία: 88%
Βαρόμετρο: 1012 hPa
Νέφωση: Διάσπαρτα Νέφη
Ορατότητα: 10 km
Λεπτομέρειες Νεφών: Διάσπαρτα Νέφη 762 m
2020/02/20 04:50 LGSY 200450Z 00000KT 9999 FEW025 11/09 Q1012 RMK BKN080 BLU
 
LGKZ - Kozani-Elev 628m
Απόσταση από σταθμό: ΔΝΔ 102km
Ενημερώθηκε: 20/02/2020 06:50
Σχεδόν νεφελώδης
Σχεδόν νεφελώδης
 Ανεμοι από ΒΒΔ
Ανεμος: ΒΒΔ 7 km/h
Θερμοκρασία: 4°C
Δείκτης Ψύχρας: 2°C
Σημείο Δρόσου: 2°C
Υγρασία: 87%
Βαρόμετρο: 1012 hPa
Νέφωση: Σχεδόν νεφελώδης
Ορατότητα: 10 km
Λεπτομέρειες Νεφών: Διάσπαρτα Νέφη 762 m
Σχεδόν νεφελώδης 2134 m
2020/02/20 04:50 LGKZ 200450Z 33004KT 9999 FEW025 BKN070 04/02 Q1012
LGIO - Ioannina-Elev 476m
Απόσταση από σταθμό: ΔΝΔ 209km
Ενημερώθηκε: 20/02/2020 07:20

 Ανεμοι από μεταβλητός
Ανεμος: μεταβλητός 6 km/h
Θερμοκρασία: 5°C
Σημείο Δρόσου: 4°C
Υγρασία: 93%
Βαρόμετρο: 1012 hPa
2020/02/20 05:20 LGIO 200520Z AUTO VRB03KT //// // ////// 05/04 Q1012 RERA
 
LGZA - Zakinthos-Elev 3m
Απόσταση από σταθμό: ΝΝΔ 367km
Ενημερώθηκε: 19/02/2020 19:50
ΜΗ Ενημερωμένο METAR!
Μερικώς νεφελώδης
Μερικώς νεφελώδης
 Ανεμοι από άπνοια
Ανεμος: άπνοια
Θερμοκρασία: 12°C
Σημείο Δρόσου: 11°C
Υγρασία: 94%
Βαρόμετρο: 1017 hPa
Νέφωση: Μερικώς νεφελώδης
Ορατότητα: 10 km
Λεπτομέρειες Νεφών: Διάσπαρτα Νέφη 610 m
Μερικώς νεφελώδης 2134 m
2020/02/19 17:50 LGZA 191750Z 00000KT 9999 FEW020 SCT070 12/11 Q1017
LGKR - Corfu Island-Elev 2m
Απόσταση από σταθμό: ΔΝΔ 282km
Ενημερώθηκε: 20/02/2020 07:20
Σχεδόν νεφελώδης
Σχεδόν νεφελώδης
 Ανεμοι από Δ
Ανεμος: Δ 11 km/h
Θερμοκρασία: 9°C
Δείκτης Ψύχρας: 7°C
Σημείο Δρόσου: 7°C
Υγρασία: 87%
Βαρόμετρο: 1012 hPa
Νέφωση: Σχεδόν νεφελώδης
Ορατότητα: 10 km
Λεπτομέρειες Νεφών: Μερικώς νεφελώδης 457 m
Σχεδόν νεφελώδης 914 m
Σχεδόν νεφελώδης 2438 m
2020/02/20 05:20 LGKR 200520Z 26006KT 9999 SCT015 BKN030 BKN080 09/07 Q1012 NOSIG
 
LGSO - Syros Island-Elev 72m
Απόσταση από σταθμό: ΝΝΑ 397km
Ενημερώθηκε: 20/02/2020 07:20

 Ανεμοι από ΔΝΔ
Ανεμος: ΔΝΔ 15 km/h
Θερμοκρασία: 12°C
Σημείο Δρόσου: 9°C
Υγρασία: 82%
Βαρόμετρο: 1012 hPa
2020/02/20 05:20 LGSO 200520Z AUTO 24008KT //// // ////// 12/09 Q1012 RE//
LGMK - Mikonos Island-Elev 123m
Απόσταση από σταθμό: ΝΝΑ 412km
Ενημερώθηκε: 19/02/2020 19:50
ΜΗ Ενημερωμένο METAR!
Διάσπαρτα Νέφη
Διάσπαρτα Νέφη
 Ανεμοι από άπνοια
Ανεμος: άπνοια
Θερμοκρασία: 14°C
Σημείο Δρόσου: 9°C
Υγρασία: 72%
Βαρόμετρο: 1016 hPa
Νέφωση: Διάσπαρτα Νέφη
Ορατότητα: 10 km
Λεπτομέρειες Νεφών: Διάσπαρτα Νέφη 549 m
2020/02/19 17:50 LGMK 191750Z 00000KT 9999 FEW018 14/09 Q1016
 
LGSR - Santorini Island-Elev 40m
Απόσταση από σταθμό: ΝΝΑ 520km
Ενημερώθηκε: 20/02/2020 07:20
Μερικώς νεφελώδης
Μερικώς νεφελώδης
 Ανεμοι από Δ
Ανεμος: Δ 37 km/h
Θερμοκρασία: 13°C
Σημείο Δρόσου: 10°C
Υγρασία: 82%
Βαρόμετρο: 1013 hPa
Νέφωση: Μερικώς νεφελώδης
Ορατότητα: 10 km
Λεπτομέρειες Νεφών: Διάσπαρτα Νέφη 610 m
Μερικώς νεφελώδης 762 m
2020/02/20 05:20 LGSR 200520Z 26020KT 9999 FEW020 SCT025 13/10 Q1013
LGKL - Kalamata-Elev 8m
Απόσταση από σταθμό: Ν 405km
Ενημερώθηκε: 20/02/2020 07:20
Ασθενής βροχή, Αχλύς, Σχεδόν νεφελώδης
Ασθενής βροχή, Αχλύς, Σχεδόν νεφελώδης
 Ανεμοι από άπνοια
Ανεμος: άπνοια
Θερμοκρασία: 11°C
Σημείο Δρόσου: 9°C
Υγρασία: 88%
Βαρόμετρο: 1014 hPa
Περίληψη: Ασθενής βροχή, Αχλύς
Νέφωση: Σχεδόν νεφελώδης
Ορατότητα: 6 km
Λεπτομέρειες Νεφών: Διάσπαρτα Νέφη 762 m
Σχεδόν νεφελώδης 1067 m
Σχεδόν νεφελώδης 2438 m
2020/02/20 05:20 LGKL 200520Z 00000KT 6000 3000NE -RA BR FEW025 BKN035 BKN080 11/09 Q1014
 
LGIR - Iraklion/Crete-Elev 5m
Απόσταση από σταθμό: ΝΝΑ 622km
Ενημερώθηκε: 20/02/2020 07:20
Μερικώς νεφελώδης
Μερικώς νεφελώδης
 Ανεμοι από Ν
Ανεμος: Ν 15 km/h
Θερμοκρασία: 11°C
Σημείο Δρόσου: 9°C
Υγρασία: 88%
Βαρόμετρο: 1015 hPa
Νέφωση: Μερικώς νεφελώδης
Ορατότητα: 10 km
Λεπτομέρειες Νεφών: Διάσπαρτα Νέφη 610 m
Μερικώς νεφελώδης 762 m
2020/02/20 05:20 LGIR 200520Z 17008KT 9999 FEW020 SCT025 11/09 Q1015 NOSIG
LGRP - Rhodes-Elev 5m
Απόσταση από σταθμό: ΝΑ 649km
Ενημερώθηκε: 20/02/2020 07:20
Μερικώς νεφελώδης
Μερικώς νεφελώδης
 Ανεμοι από ΑΝΑ
Ανεμος: ΑΝΑ 7 km/h
Θερμοκρασία: 13°C
Σημείο Δρόσου: 8°C
Υγρασία: 72%
Βαρόμετρο: 1014 hPa
Νέφωση: Μερικώς νεφελώδης
Ορατότητα: 10 km
Λεπτομέρειες Νεφών: Διάσπαρτα Νέφη 366 m
Μερικώς νεφελώδης 762 m
2020/02/20 05:20 LGRP 200520Z 11004KT 9999 FEW012 SCT025 13/08 Q1014 NOSIG
 
LWOH - Ohrid/FYROM-Elev 761m
Απόσταση από σταθμό: ΔΒΔ 188km
Ενημερώθηκε: 20/02/2020 07:00
Βροχή, Συννεφιά
Βροχή, Συννεφιά
 Ανεμοι από ΝΑ
Ανεμος: ΝΑ 7 km/h
Θερμοκρασία: 5°C
Δείκτης Ψύχρας: 3°C
Σημείο Δρόσου: 3°C
Υγρασία: 87%
Βαρόμετρο: 1012 hPa
Περίληψη: Βροχή
Νέφωση: Συννεφιά
Ορατότητα: 8 km
Λεπτομέρειες Νεφών: Συννεφιά 914 m
2020/02/20 05:00 LWOH 200500Z 14004KT 8000 RA OVC030 05/03 Q1012
LBSF - Sofia/Bulgaria-Elev 595m
Απόσταση από σταθμό: Β 227km
Ενημερώθηκε: 20/02/2020 07:00
Συννεφιά
Συννεφιά
 Ανεμοι από ΒΔ
Ανεμος: ΒΔ 7 km/h
Θερμοκρασία: 4°C
Δείκτης Ψύχρας: 2°C
Σημείο Δρόσου: 3°C
Υγρασία: 93%
Βαρόμετρο: 1014 hPa
Νέφωση: Συννεφιά
Ορατότητα: 8 km
Λεπτομέρειες Νεφών: Διάσπαρτα Νέφη 305 m
Μερικώς νεφελώδης 671 m
Συννεφιά 792 m
2020/02/20 05:00 LBSF 200500Z 31004KT 8000 FEW010 SCT022 OVC026 04/03 Q1014 R99/29//95 NOSIG